sensor_id;sensor_type;location;lat;lon;timestamp;P1;durP1;ratioP1;P2;durP2;ratioP2
20482;SDS011;10400;53.198;6.592;2023-04-25T00:01:30;24.00;;;3.78;;
20482;SDS011;10400;53.198;6.592;2023-04-25T00:03:58;21.33;;;4.18;;
20482;SDS011;10400;53.198;6.592;2023-04-25T00:06:24;20.42;;;4.28;;
20482;SDS011;10400;53.198;6.592;2023-04-25T00:08:51;22.67;;;4.03;;
20482;SDS011;10400;53.198;6.592;2023-04-25T00:11:17;24.08;;;4.70;;
20482;SDS011;10400;53.198;6.592;2023-04-25T00:13:43;21.33;;;4.65;;
20482;SDS011;10400;53.198;6.592;2023-04-25T00:16:09;27.17;;;3.90;;
20482;SDS011;10400;53.198;6.592;2023-04-25T00:18:35;19.33;;;4.07;;
20482;SDS011;10400;53.198;6.592;2023-04-25T00:21:01;24.38;;;4.68;;
20482;SDS011;10400;53.198;6.592;2023-04-25T00:23:27;19.67;;;4.30;;
20482;SDS011;10400;53.198;6.592;2023-04-25T00:25:53;25.23;;;5.15;;
20482;SDS011;10400;53.198;6.592;2023-04-25T00:28:18;22.90;;;4.13;;
20482;SDS011;10400;53.198;6.592;2023-04-25T00:30:44;13.70;;;3.25;;
20482;SDS011;10400;53.198;6.592;2023-04-25T00:33:10;19.90;;;3.60;;
20482;SDS011;10400;53.198;6.592;2023-04-25T00:35:35;15.00;;;3.25;;
20482;SDS011;10400;53.198;6.592;2023-04-25T00:38:01;17.08;;;3.63;;
20482;SDS011;10400;53.198;6.592;2023-04-25T00:40:27;17.63;;;3.38;;
20482;SDS011;10400;53.198;6.592;2023-04-25T00:42:53;13.30;;;2.83;;
20482;SDS011;10400;53.198;6.592;2023-04-25T00:45:19;12.73;;;3.05;;
20482;SDS011;10400;53.198;6.592;2023-04-25T00:47:45;15.88;;;2.80;;
20482;SDS011;10400;53.198;6.592;2023-04-25T00:50:12;16.83;;;3.42;;
20482;SDS011;10400;53.198;6.592;2023-04-25T00:52:39;18.88;;;3.45;;
20482;SDS011;10400;53.198;6.592;2023-04-25T00:55:06;17.85;;;2.88;;
20482;SDS011;10400;53.198;6.592;2023-04-25T00:57:33;17.75;;;2.90;;
20482;SDS011;10400;53.198;6.592;2023-04-25T00:59:59;14.02;;;2.90;;
20482;SDS011;10400;53.198;6.592;2023-04-25T01:02:25;16.65;;;2.97;;
20482;SDS011;10400;53.198;6.592;2023-04-25T01:04:52;16.00;;;3.47;;
20482;SDS011;10400;53.198;6.592;2023-04-25T01:07:18;13.63;;;2.80;;
20482;SDS011;10400;53.198;6.592;2023-04-25T01:09:45;16.67;;;2.72;;
20482;SDS011;10400;53.198;6.592;2023-04-25T01:12:11;17.10;;;3.22;;
20482;SDS011;10400;53.198;6.592;2023-04-25T01:14:37;14.65;;;3.08;;
20482;SDS011;10400;53.198;6.592;2023-04-25T01:17:03;15.13;;;2.53;;
20482;SDS011;10400;53.198;6.592;2023-04-25T01:19:29;13.55;;;2.83;;
20482;SDS011;10400;53.198;6.592;2023-04-25T01:21:55;7.75;;;2.22;;
20482;SDS011;10400;53.198;6.592;2023-04-25T01:24:21;14.50;;;3.17;;
20482;SDS011;10400;53.198;6.592;2023-04-25T01:26:47;10.30;;;2.80;;
20482;SDS011;10400;53.198;6.592;2023-04-25T01:29:17;10.35;;;2.47;;
20482;SDS011;10400;53.198;6.592;2023-04-25T01:31:44;17.27;;;2.97;;
20482;SDS011;10400;53.198;6.592;2023-04-25T01:34:10;12.52;;;2.20;;
20482;SDS011;10400;53.198;6.592;2023-04-25T01:36:36;11.13;;;2.95;;
20482;SDS011;10400;53.198;6.592;2023-04-25T01:39:02;8.18;;;2.28;;
20482;SDS011;10400;53.198;6.592;2023-04-25T01:41:28;18.20;;;2.60;;
20482;SDS011;10400;53.198;6.592;2023-04-25T01:43:55;16.20;;;3.05;;
20482;SDS011;10400;53.198;6.592;2023-04-25T01:46:20;12.88;;;2.75;;
20482;SDS011;10400;53.198;6.592;2023-04-25T01:48:46;19.63;;;2.75;;
20482;SDS011;10400;53.198;6.592;2023-04-25T01:51:12;14.30;;;2.33;;
20482;SDS011;10400;53.198;6.592;2023-04-25T01:53:38;12.07;;;2.17;;
20482;SDS011;10400;53.198;6.592;2023-04-25T01:56:05;16.75;;;2.50;;
20482;SDS011;10400;53.198;6.592;2023-04-25T01:58:31;13.50;;;2.47;;
20482;SDS011;10400;53.198;6.592;2023-04-25T02:00:56;20.73;;;3.88;;
20482;SDS011;10400;53.198;6.592;2023-04-25T02:03:22;16.92;;;2.58;;
20482;SDS011;10400;53.198;6.592;2023-04-25T02:05:48;25.65;;;4.40;;
20482;SDS011;10400;53.198;6.592;2023-04-25T02:08:13;20.33;;;3.15;;
20482;SDS011;10400;53.198;6.592;2023-04-25T02:10:39;23.10;;;3.78;;
20482;SDS011;10400;53.198;6.592;2023-04-25T02:13:05;16.73;;;3.22;;
20482;SDS011;10400;53.198;6.592;2023-04-25T02:15:31;15.88;;;2.70;;
20482;SDS011;10400;53.198;6.592;2023-04-25T02:17:56;22.52;;;3.05;;
20482;SDS011;10400;53.198;6.592;2023-04-25T02:20:23;19.30;;;3.40;;
20482;SDS011;10400;53.198;6.592;2023-04-25T02:22:49;19.55;;;2.90;;
20482;SDS011;10400;53.198;6.592;2023-04-25T02:25:16;12.43;;;2.70;;
20482;SDS011;10400;53.198;6.592;2023-04-25T02:27:42;17.55;;;3.03;;
20482;SDS011;10400;53.198;6.592;2023-04-25T02:30:08;19.35;;;2.80;;
20482;SDS011;10400;53.198;6.592;2023-04-25T02:32:34;18.70;;;2.97;;
20482;SDS011;10400;53.198;6.592;2023-04-25T02:35:00;17.88;;;2.92;;
20482;SDS011;10400;53.198;6.592;2023-04-25T02:37:32;14.65;;;2.72;;
20482;SDS011;10400;53.198;6.592;2023-04-25T02:39:58;14.88;;;2.72;;
20482;SDS011;10400;53.198;6.592;2023-04-25T02:42:26;20.02;;;2.90;;
20482;SDS011;10400;53.198;6.592;2023-04-25T02:44:52;13.38;;;2.83;;
20482;SDS011;10400;53.198;6.592;2023-04-25T02:47:18;13.05;;;2.55;;
20482;SDS011;10400;53.198;6.592;2023-04-25T02:49:43;15.85;;;2.65;;
20482;SDS011;10400;53.198;6.592;2023-04-25T02:52:11;15.30;;;2.72;;
20482;SDS011;10400;53.198;6.592;2023-04-25T02:54:37;9.93;;;2.22;;
20482;SDS011;10400;53.198;6.592;2023-04-25T02:57:03;15.00;;;2.65;;
20482;SDS011;10400;53.198;6.592;2023-04-25T02:59:29;11.50;;;2.65;;
20482;SDS011;10400;53.198;6.592;2023-04-25T03:01:54;16.88;;;3.00;;
20482;SDS011;10400;53.198;6.592;2023-04-25T03:04:20;13.43;;;2.70;;
20482;SDS011;10400;53.198;6.592;2023-04-25T03:06:48;15.60;;;2.65;;
20482;SDS011;10400;53.198;6.592;2023-04-25T03:09:14;13.80;;;2.42;;
20482;SDS011;10400;53.198;6.592;2023-04-25T03:11:41;8.57;;;2.17;;
20482;SDS011;10400;53.198;6.592;2023-04-25T03:14:07;18.13;;;2.53;;
20482;SDS011;10400;53.198;6.592;2023-04-25T03:16:33;14.85;;;2.55;;
20482;SDS011;10400;53.198;6.592;2023-04-25T03:18:59;15.48;;;2.33;;
20482;SDS011;10400;53.198;6.592;2023-04-25T03:21:24;14.98;;;2.47;;
20482;SDS011;10400;53.198;6.592;2023-04-25T03:23:51;16.27;;;2.50;;
20482;SDS011;10400;53.198;6.592;2023-04-25T03:26:17;11.57;;;2.45;;
20482;SDS011;10400;53.198;6.592;2023-04-25T03:28:43;18.02;;;2.97;;
20482;SDS011;10400;53.198;6.592;2023-04-25T03:31:08;8.50;;;1.98;;
20482;SDS011;10400;53.198;6.592;2023-04-25T03:33:34;13.00;;;2.63;;
20482;SDS011;10400;53.198;6.592;2023-04-25T03:36:00;12.70;;;2.92;;
20482;SDS011;10400;53.198;6.592;2023-04-25T03:38:25;18.25;;;2.80;;
20482;SDS011;10400;53.198;6.592;2023-04-25T03:40:51;16.83;;;2.80;;
20482;SDS011;10400;53.198;6.592;2023-04-25T03:43:17;12.85;;;2.33;;
20482;SDS011;10400;53.198;6.592;2023-04-25T03:45:42;9.50;;;2.00;;
20482;SDS011;10400;53.198;6.592;2023-04-25T03:48:08;17.27;;;2.60;;
20482;SDS011;10400;53.198;6.592;2023-04-25T03:50:34;15.57;;;2.20;;
20482;SDS011;10400;53.198;6.592;2023-04-25T03:52:59;16.52;;;2.30;;
20482;SDS011;10400;53.198;6.592;2023-04-25T03:55:25;13.88;;;2.10;;
20482;SDS011;10400;53.198;6.592;2023-04-25T03:57:51;12.63;;;2.35;;
20482;SDS011;10400;53.198;6.592;2023-04-25T04:00:16;14.15;;;2.42;;
20482;SDS011;10400;53.198;6.592;2023-04-25T04:02:42;15.63;;;4.22;;
20482;SDS011;10400;53.198;6.592;2023-04-25T04:05:08;18.83;;;3.25;;
20482;SDS011;10400;53.198;6.592;2023-04-25T04:07:34;10.48;;;2.33;;
20482;SDS011;10400;53.198;6.592;2023-04-25T04:10:04;16.13;;;2.25;;
20482;SDS011;10400;53.198;6.592;2023-04-25T04:12:34;13.00;;;2.30;;
20482;SDS011;10400;53.198;6.592;2023-04-25T04:14:59;13.57;;;2.20;;
20482;SDS011;10400;53.198;6.592;2023-04-25T04:17:26;11.60;;;2.40;;
20482;SDS011;10400;53.198;6.592;2023-04-25T04:19:51;14.65;;;2.67;;
20482;SDS011;10400;53.198;6.592;2023-04-25T04:22:17;14.95;;;2.70;;
20482;SDS011;10400;53.198;6.592;2023-04-25T04:24:42;14.75;;;2.30;;
20482;SDS011;10400;53.198;6.592;2023-04-25T04:27:11;14.77;;;2.13;;
20482;SDS011;10400;53.198;6.592;2023-04-25T04:29:38;11.38;;;2.53;;
20482;SDS011;10400;53.198;6.592;2023-04-25T04:32:03;13.75;;;2.97;;
20482;SDS011;10400;53.198;6.592;2023-04-25T04:34:29;15.68;;;2.65;;
20482;SDS011;10400;53.198;6.592;2023-04-25T04:36:56;18.20;;;2.55;;
20482;SDS011;10400;53.198;6.592;2023-04-25T04:39:22;15.48;;;2.58;;
20482;SDS011;10400;53.198;6.592;2023-04-25T04:41:47;12.15;;;2.10;;
20482;SDS011;10400;53.198;6.592;2023-04-25T04:44:13;12.10;;;2.80;;
20482;SDS011;10400;53.198;6.592;2023-04-25T04:46:39;11.82;;;2.70;;
20482;SDS011;10400;53.198;6.592;2023-04-25T04:49:09;14.32;;;2.60;;
20482;SDS011;10400;53.198;6.592;2023-04-25T04:51:36;9.27;;;2.33;;
20482;SDS011;10400;53.198;6.592;2023-04-25T04:54:02;14.55;;;2.78;;
20482;SDS011;10400;53.198;6.592;2023-04-25T04:56:31;13.13;;;2.40;;
20482;SDS011;10400;53.198;6.592;2023-04-25T04:58:57;8.68;;;1.65;;
20482;SDS011;10400;53.198;6.592;2023-04-25T05:01:24;12.23;;;2.75;;
20482;SDS011;10400;53.198;6.592;2023-04-25T05:03:50;11.57;;;2.85;;
20482;SDS011;10400;53.198;6.592;2023-04-25T05:06:17;11.98;;;2.45;;
20482;SDS011;10400;53.198;6.592;2023-04-25T05:08:44;9.73;;;3.25;;
20482;SDS011;10400;53.198;6.592;2023-04-25T05:11:09;10.98;;;1.80;;
20482;SDS011;10400;53.198;6.592;2023-04-25T05:13:36;15.73;;;2.70;;
20482;SDS011;10400;53.198;6.592;2023-04-25T05:16:01;8.32;;;1.77;;
20482;SDS011;10400;53.198;6.592;2023-04-25T05:18:27;9.02;;;2.00;;
20482;SDS011;10400;53.198;6.592;2023-04-25T05:20:53;10.98;;;1.98;;
20482;SDS011;10400;53.198;6.592;2023-04-25T05:23:19;12.48;;;2.10;;
20482;SDS011;10400;53.198;6.592;2023-04-25T05:25:44;10.70;;;1.90;;
20482;SDS011;10400;53.198;6.592;2023-04-25T05:28:12;10.23;;;2.20;;
20482;SDS011;10400;53.198;6.592;2023-04-25T05:30:38;8.32;;;1.58;;
20482;SDS011;10400;53.198;6.592;2023-04-25T05:33:04;7.50;;;1.77;;
20482;SDS011;10400;53.198;6.592;2023-04-25T05:35:30;5.47;;;1.50;;
20482;SDS011;10400;53.198;6.592;2023-04-25T05:37:56;13.20;;;2.15;;
20482;SDS011;10400;53.198;6.592;2023-04-25T05:40:21;9.23;;;2.03;;
20482;SDS011;10400;53.198;6.592;2023-04-25T05:42:47;7.07;;;1.70;;
20482;SDS011;10400;53.198;6.592;2023-04-25T05:45:13;12.38;;;2.03;;
20482;SDS011;10400;53.198;6.592;2023-04-25T05:47:38;11.85;;;2.03;;
20482;SDS011;10400;53.198;6.592;2023-04-25T05:50:04;9.50;;;1.85;;
20482;SDS011;10400;53.198;6.592;2023-04-25T05:52:31;10.93;;;1.75;;
20482;SDS011;10400;53.198;6.592;2023-04-25T05:55:00;5.43;;;1.75;;
20482;SDS011;10400;53.198;6.592;2023-04-25T05:57:26;7.05;;;2.00;;
20482;SDS011;10400;53.198;6.592;2023-04-25T05:59:52;7.97;;;1.98;;
20482;SDS011;10400;53.198;6.592;2023-04-25T06:02:18;9.95;;;1.70;;
20482;SDS011;10400;53.198;6.592;2023-04-25T06:04:46;12.10;;;2.17;;
20482;SDS011;10400;53.198;6.592;2023-04-25T06:07:12;11.20;;;2.40;;
20482;SDS011;10400;53.198;6.592;2023-04-25T06:09:38;12.23;;;1.75;;
20482;SDS011;10400;53.198;6.592;2023-04-25T06:12:05;7.20;;;1.85;;
20482;SDS011;10400;53.198;6.592;2023-04-25T06:14:31;6.00;;;1.73;;
20482;SDS011;10400;53.198;6.592;2023-04-25T06:16:56;9.90;;;1.70;;
20482;SDS011;10400;53.198;6.592;2023-04-25T06:19:22;7.72;;;1.70;;
20482;SDS011;10400;53.198;6.592;2023-04-25T06:21:48;10.45;;;1.65;;
20482;SDS011;10400;53.198;6.592;2023-04-25T06:24:13;6.72;;;2.17;;
20482;SDS011;10400;53.198;6.592;2023-04-25T06:26:39;6.90;;;1.88;;
20482;SDS011;10400;53.198;6.592;2023-04-25T06:29:05;5.85;;;2.72;;
20482;SDS011;10400;53.198;6.592;2023-04-25T06:31:30;9.00;;;1.40;;
20482;SDS011;10400;53.198;6.592;2023-04-25T06:33:58;8.50;;;1.77;;
20482;SDS011;10400;53.198;6.592;2023-04-25T06:36:23;6.28;;;1.55;;
20482;SDS011;10400;53.198;6.592;2023-04-25T06:38:51;10.93;;;1.80;;
20482;SDS011;10400;53.198;6.592;2023-04-25T06:41:17;9.20;;;1.80;;
20482;SDS011;10400;53.198;6.592;2023-04-25T06:43:43;14.38;;;2.35;;
20482;SDS011;10400;53.198;6.592;2023-04-25T06:46:09;8.40;;;1.90;;
20482;SDS011;10400;53.198;6.592;2023-04-25T06:48:35;10.60;;;1.92;;
20482;SDS011;10400;53.198;6.592;2023-04-25T06:51:01;9.23;;;2.55;;
20482;SDS011;10400;53.198;6.592;2023-04-25T06:53:27;6.93;;;1.65;;
20482;SDS011;10400;53.198;6.592;2023-04-25T06:55:53;9.07;;;1.98;;
20482;SDS011;10400;53.198;6.592;2023-04-25T06:58:18;7.57;;;1.83;;
20482;SDS011;10400;53.198;6.592;2023-04-25T07:00:44;11.68;;;2.20;;
20482;SDS011;10400;53.198;6.592;2023-04-25T07:03:10;8.60;;;1.70;;
20482;SDS011;10400;53.198;6.592;2023-04-25T07:05:35;8.55;;;1.70;;
20482;SDS011;10400;53.198;6.592;2023-04-25T07:08:01;7.78;;;1.38;;
20482;SDS011;10400;53.198;6.592;2023-04-25T07:10:27;11.50;;;1.65;;
20482;SDS011;10400;53.198;6.592;2023-04-25T07:12:53;7.43;;;1.45;;
20482;SDS011;10400;53.198;6.592;2023-04-25T07:15:19;11.05;;;1.30;;
20482;SDS011;10400;53.198;6.592;2023-04-25T07:17:45;7.57;;;1.50;;
20482;SDS011;10400;53.198;6.592;2023-04-25T07:20:11;10.38;;;1.67;;
20482;SDS011;10400;53.198;6.592;2023-04-25T07:22:36;5.95;;;1.92;;
20482;SDS011;10400;53.198;6.592;2023-04-25T07:25:02;6.45;;;1.30;;
20482;SDS011;10400;53.198;6.592;2023-04-25T07:27:29;7.20;;;1.70;;
20482;SDS011;10400;53.198;6.592;2023-04-25T07:29:55;7.07;;;1.25;;
20482;SDS011;10400;53.198;6.592;2023-04-25T07:32:21;3.65;;;1.00;;
20482;SDS011;10400;53.198;6.592;2023-04-25T07:34:47;8.57;;;1.95;;
20482;SDS011;10400;53.198;6.592;2023-04-25T07:37:12;10.93;;;1.55;;
20482;SDS011;10400;53.198;6.592;2023-04-25T07:39:39;8.90;;;1.83;;
20482;SDS011;10400;53.198;6.592;2023-04-25T07:42:05;12.77;;;1.80;;
20482;SDS011;10400;53.198;6.592;2023-04-25T07:44:33;10.20;;;1.52;;
20482;SDS011;10400;53.198;6.592;2023-04-25T07:47:04;7.43;;;1.77;;
20482;SDS011;10400;53.198;6.592;2023-04-25T07:49:32;13.88;;;1.80;;
20482;SDS011;10400;53.198;6.592;2023-04-25T07:52:01;8.32;;;1.70;;
20482;SDS011;10400;53.198;6.592;2023-04-25T07:54:27;7.47;;;1.58;;
20482;SDS011;10400;53.198;6.592;2023-04-25T07:56:53;5.47;;;1.17;;
20482;SDS011;10400;53.198;6.592;2023-04-25T07:59:19;7.00;;;1.27;;
20482;SDS011;10400;53.198;6.592;2023-04-25T08:01:45;8.48;;;1.48;;
20482;SDS011;10400;53.198;6.592;2023-04-25T08:04:11;7.88;;;1.35;;
20482;SDS011;10400;53.198;6.592;2023-04-25T08:06:36;7.95;;;1.58;;
20482;SDS011;10400;53.198;6.592;2023-04-25T08:09:02;7.28;;;1.30;;
20482;SDS011;10400;53.198;6.592;2023-04-25T08:11:29;7.28;;;1.50;;
20482;SDS011;10400;53.198;6.592;2023-04-25T08:13:54;6.43;;;0.98;;
20482;SDS011;10400;53.198;6.592;2023-04-25T08:16:20;3.33;;;0.95;;
20482;SDS011;10400;53.198;6.592;2023-04-25T08:18:46;5.93;;;1.10;;
20482;SDS011;10400;53.198;6.592;2023-04-25T08:21:11;3.72;;;1.10;;
20482;SDS011;10400;53.198;6.592;2023-04-25T08:23:37;4.32;;;0.90;;
20482;SDS011;10400;53.198;6.592;2023-04-25T08:26:03;5.55;;;1.40;;
20482;SDS011;10400;53.198;6.592;2023-04-25T08:28:30;12.05;;;1.38;;
20482;SDS011;10400;53.198;6.592;2023-04-25T08:30:56;2.58;;;1.15;;
20482;SDS011;10400;53.198;6.592;2023-04-25T08:33:21;8.18;;;1.10;;
20482;SDS011;10400;53.198;6.592;2023-04-25T08:35:47;3.45;;;1.00;;
20482;SDS011;10400;53.198;6.592;2023-04-25T08:38:13;6.35;;;1.50;;
20482;SDS011;10400;53.198;6.592;2023-04-25T08:40:39;8.02;;;1.35;;
20482;SDS011;10400;53.198;6.592;2023-04-25T08:43:05;5.00;;;0.90;;
20482;SDS011;10400;53.198;6.592;2023-04-25T08:45:36;3.40;;;1.00;;
20482;SDS011;10400;53.198;6.592;2023-04-25T08:48:05;4.60;;;1.08;;
20482;SDS011;10400;53.198;6.592;2023-04-25T08:50:32;6.13;;;1.15;;
20482;SDS011;10400;53.198;6.592;2023-04-25T08:52:59;4.32;;;1.20;;
20482;SDS011;10400;53.198;6.592;2023-04-25T08:55:28;5.80;;;1.00;;
20482;SDS011;10400;53.198;6.592;2023-04-25T08:57:56;7.80;;;1.20;;
20482;SDS011;10400;53.198;6.592;2023-04-25T09:00:24;8.98;;;1.45;;
20482;SDS011;10400;53.198;6.592;2023-04-25T09:02:49;4.80;;;1.10;;
20482;SDS011;10400;53.198;6.592;2023-04-25T09:05:15;4.32;;;1.13;;
20482;SDS011;10400;53.198;6.592;2023-04-25T09:07:41;8.43;;;1.58;;
20482;SDS011;10400;53.198;6.592;2023-04-25T09:10:07;4.68;;;1.25;;
20482;SDS011;10400;53.198;6.592;2023-04-25T09:12:33;8.13;;;1.20;;
20482;SDS011;10400;53.198;6.592;2023-04-25T09:15:10;5.30;;;1.50;;
20482;SDS011;10400;53.198;6.592;2023-04-25T09:17:37;5.55;;;1.40;;
20482;SDS011;10400;53.198;6.592;2023-04-25T09:20:11;6.03;;;1.23;;
20482;SDS011;10400;53.198;6.592;2023-04-25T09:22:38;6.22;;;1.48;;
20482;SDS011;10400;53.198;6.592;2023-04-25T09:25:07;3.88;;;1.30;;
20482;SDS011;10400;53.198;6.592;2023-04-25T09:27:34;10.20;;;1.40;;
20482;SDS011;10400;53.198;6.592;2023-04-25T09:30:01;12.50;;;1.67;;
20482;SDS011;10400;53.198;6.592;2023-04-25T09:32:26;9.35;;;1.70;;
20482;SDS011;10400;53.198;6.592;2023-04-25T09:34:53;7.43;;;1.73;;
20482;SDS011;10400;53.198;6.592;2023-04-25T09:37:24;11.88;;;1.30;;
20482;SDS011;10400;53.198;6.592;2023-04-25T09:39:52;6.72;;;2.05;;
20482;SDS011;10400;53.198;6.592;2023-04-25T09:42:27;7.00;;;1.75;;
20482;SDS011;10400;53.198;6.592;2023-04-25T09:44:56;7.88;;;2.10;;
20482;SDS011;10400;53.198;6.592;2023-04-25T09:47:23;15.52;;;1.83;;
20482;SDS011;10400;53.198;6.592;2023-04-25T09:49:51;8.60;;;1.85;;
20482;SDS011;10400;53.198;6.592;2023-04-25T09:52:18;8.82;;;1.40;;
20482;SDS011;10400;53.198;6.592;2023-04-25T09:54:46;7.43;;;1.48;;
20482;SDS011;10400;53.198;6.592;2023-04-25T09:57:22;5.97;;;1.67;;
20482;SDS011;10400;53.198;6.592;2023-04-25T09:59:52;12.05;;;1.85;;
20482;SDS011;10400;53.198;6.592;2023-04-25T10:02:24;12.05;;;2.00;;
20482;SDS011;10400;53.198;6.592;2023-04-25T10:04:52;5.60;;;1.80;;
20482;SDS011;10400;53.198;6.592;2023-04-25T10:07:22;5.10;;;1.08;;
20482;SDS011;10400;53.198;6.592;2023-04-25T10:10:02;5.82;;;1.40;;
20482;SDS011;10400;53.198;6.592;2023-04-25T10:12:32;8.90;;;1.98;;
20482;SDS011;10400;53.198;6.592;2023-04-25T10:14:59;8.40;;;1.60;;
20482;SDS011;10400;53.198;6.592;2023-04-25T10:17:25;9.10;;;1.67;;
20482;SDS011;10400;53.198;6.592;2023-04-25T10:19:52;8.85;;;1.95;;
20482;SDS011;10400;53.198;6.592;2023-04-25T10:22:39;7.63;;;1.33;;
20482;SDS011;10400;53.198;6.592;2023-04-25T10:25:07;7.72;;;1.35;;
20482;SDS011;10400;53.198;6.592;2023-04-25T10:27:34;9.15;;;1.35;;
20482;SDS011;10400;53.198;6.592;2023-04-25T10:30:04;7.03;;;1.92;;
20482;SDS011;10400;53.198;6.592;2023-04-25T10:32:36;10.18;;;1.60;;
20482;SDS011;10400;53.198;6.592;2023-04-25T10:35:12;9.63;;;1.58;;
20482;SDS011;10400;53.198;6.592;2023-04-25T10:40:36;12.63;;;1.90;;
20482;SDS011;10400;53.198;6.592;2023-04-25T10:45:55;12.82;;;1.90;;
20482;SDS011;10400;53.198;6.592;2023-04-25T10:48:27;9.82;;;1.55;;
20482;SDS011;10400;53.198;6.592;2023-04-25T10:51:07;9.07;;;1.33;;
20482;SDS011;10400;53.198;6.592;2023-04-25T10:53:34;6.70;;;1.90;;
20482;SDS011;10400;53.198;6.592;2023-04-25T10:56:00;4.22;;;1.20;;
20482;SDS011;10400;53.198;6.592;2023-04-25T10:58:34;7.95;;;1.75;;
20482;SDS011;10400;53.198;6.592;2023-04-25T11:01:00;10.52;;;1.73;;
20482;SDS011;10400;53.198;6.592;2023-04-25T11:03:26;13.52;;;1.65;;
20482;SDS011;10400;53.198;6.592;2023-04-25T11:05:52;4.72;;;1.23;;
20482;SDS011;10400;53.198;6.592;2023-04-25T11:08:20;6.88;;;1.50;;
20482;SDS011;10400;53.198;6.592;2023-04-25T11:11:11;7.88;;;1.27;;
20482;SDS011;10400;53.198;6.592;2023-04-25T11:13:37;6.85;;;1.58;;
20482;SDS011;10400;53.198;6.592;2023-04-25T11:16:03;8.25;;;1.33;;
20482;SDS011;10400;53.198;6.592;2023-04-25T11:18:33;5.10;;;1.27;;
20482;SDS011;10400;53.198;6.592;2023-04-25T11:20:59;8.55;;;1.38;;
20482;SDS011;10400;53.198;6.592;2023-04-25T11:23:25;5.07;;;1.30;;
20482;SDS011;10400;53.198;6.592;2023-04-25T11:25:54;3.35;;;1.38;;
20482;SDS011;10400;53.198;6.592;2023-04-25T11:28:20;11.23;;;1.95;;
20482;SDS011;10400;53.198;6.592;2023-04-25T11:30:49;4.10;;;1.33;;
20482;SDS011;10400;53.198;6.592;2023-04-25T11:33:15;7.43;;;1.45;;
20482;SDS011;10400;53.198;6.592;2023-04-25T11:35:41;6.00;;;1.20;;
20482;SDS011;10400;53.198;6.592;2023-04-25T11:38:07;4.75;;;1.40;;
20482;SDS011;10400;53.198;6.592;2023-04-25T11:40:36;6.65;;;1.27;;
20482;SDS011;10400;53.198;6.592;2023-04-25T11:43:02;6.03;;;1.25;;
20482;SDS011;10400;53.198;6.592;2023-04-25T11:45:28;11.55;;;1.85;;
20482;SDS011;10400;53.198;6.592;2023-04-25T11:47:55;6.95;;;1.48;;
20482;SDS011;10400;53.198;6.592;2023-04-25T11:50:21;4.18;;;1.20;;
20482;SDS011;10400;53.198;6.592;2023-04-25T11:52:47;5.00;;;1.33;;
20482;SDS011;10400;53.198;6.592;2023-04-25T11:55:14;6.05;;;1.40;;
20482;SDS011;10400;53.198;6.592;2023-04-25T11:57:42;11.23;;;1.58;;
20482;SDS011;10400;53.198;6.592;2023-04-25T12:00:13;8.18;;;1.38;;
20482;SDS011;10400;53.198;6.592;2023-04-25T12:02:52;5.72;;;1.63;;
20482;SDS011;10400;53.198;6.592;2023-04-25T12:05:19;6.40;;;1.33;;
20482;SDS011;10400;53.198;6.592;2023-04-25T12:07:48;6.45;;;1.52;;
20482;SDS011;10400;53.198;6.592;2023-04-25T12:10:15;9.82;;;1.55;;
20482;SDS011;10400;53.198;6.592;2023-04-25T12:12:42;9.93;;;1.70;;
20482;SDS011;10400;53.198;6.592;2023-04-25T12:15:12;11.43;;;1.88;;
20482;SDS011;10400;53.198;6.592;2023-04-25T12:17:41;10.07;;;1.50;;
20482;SDS011;10400;53.198;6.592;2023-04-25T12:20:12;4.97;;;1.20;;
20482;SDS011;10400;53.198;6.592;2023-04-25T12:22:43;8.45;;;1.88;;
20482;SDS011;10400;53.198;6.592;2023-04-25T12:25:11;14.40;;;2.05;;
20482;SDS011;10400;53.198;6.592;2023-04-25T12:27:38;5.15;;;1.17;;
20482;SDS011;10400;53.198;6.592;2023-04-25T12:30:09;9.88;;;1.45;;
20482;SDS011;10400;53.198;6.592;2023-04-25T12:32:36;4.15;;;1.30;;
20482;SDS011;10400;53.198;6.592;2023-04-25T12:35:02;12.63;;;1.58;;
20482;SDS011;10400;53.198;6.592;2023-04-25T12:37:29;7.57;;;1.35;;
20482;SDS011;10400;53.198;6.592;2023-04-25T12:39:55;8.85;;;1.38;;
20482;SDS011;10400;53.198;6.592;2023-04-25T12:42:21;6.82;;;1.45;;
20482;SDS011;10400;53.198;6.592;2023-04-25T12:44:47;8.65;;;1.52;;
20482;SDS011;10400;53.198;6.592;2023-04-25T12:47:12;9.15;;;1.63;;
20482;SDS011;10400;53.198;6.592;2023-04-25T12:49:38;8.65;;;1.45;;
20482;SDS011;10400;53.198;6.592;2023-04-25T12:52:04;7.95;;;1.42;;
20482;SDS011;10400;53.198;6.592;2023-04-25T12:54:30;3.88;;;1.10;;
20482;SDS011;10400;53.198;6.592;2023-04-25T12:56:56;4.53;;;1.20;;
20482;SDS011;10400;53.198;6.592;2023-04-25T12:59:22;6.22;;;1.48;;
20482;SDS011;10400;53.198;6.592;2023-04-25T13:01:48;6.40;;;1.30;;
20482;SDS011;10400;53.198;6.592;2023-04-25T13:04:14;4.40;;;1.10;;
20482;SDS011;10400;53.198;6.592;2023-04-25T13:06:40;7.88;;;1.63;;
20482;SDS011;10400;53.198;6.592;2023-04-25T13:09:06;9.65;;;1.67;;
20482;SDS011;10400;53.198;6.592;2023-04-25T13:11:32;8.48;;;1.60;;
20482;SDS011;10400;53.198;6.592;2023-04-25T13:13:57;7.63;;;1.55;;
20482;SDS011;10400;53.198;6.592;2023-04-25T13:16:23;5.90;;;1.55;;
20482;SDS011;10400;53.198;6.592;2023-04-25T13:18:49;8.68;;;1.35;;
20482;SDS011;10400;53.198;6.592;2023-04-25T13:21:14;9.10;;;1.27;;
20482;SDS011;10400;53.198;6.592;2023-04-25T13:23:40;7.25;;;1.80;;
20482;SDS011;10400;53.198;6.592;2023-04-25T13:26:07;5.43;;;1.08;;
20482;SDS011;10400;53.198;6.592;2023-04-25T13:28:33;5.35;;;1.55;;
20482;SDS011;10400;53.198;6.592;2023-04-25T13:30:59;5.75;;;1.60;;
20482;SDS011;10400;53.198;6.592;2023-04-25T13:33:25;8.43;;;1.50;;
20482;SDS011;10400;53.198;6.592;2023-04-25T13:35:50;9.25;;;1.83;;
20482;SDS011;10400;53.198;6.592;2023-04-25T13:38:22;9.43;;;1.63;;
20482;SDS011;10400;53.198;6.592;2023-04-25T13:40:49;9.00;;;1.40;;
20482;SDS011;10400;53.198;6.592;2023-04-25T13:43:17;8.88;;;1.80;;
20482;SDS011;10400;53.198;6.592;2023-04-25T13:45:44;11.90;;;1.83;;
20482;SDS011;10400;53.198;6.592;2023-04-25T13:48:10;9.25;;;1.73;;
20482;SDS011;10400;53.198;6.592;2023-04-25T13:50:35;9.95;;;1.80;;
20482;SDS011;10400;53.198;6.592;2023-04-25T13:53:01;8.00;;;1.60;;
20482;SDS011;10400;53.198;6.592;2023-04-25T13:55:27;8.70;;;1.30;;
20482;SDS011;10400;53.198;6.592;2023-04-25T13:57:52;4.72;;;1.10;;
20482;SDS011;10400;53.198;6.592;2023-04-25T14:00:18;4.22;;;0.90;;
20482;SDS011;10400;53.198;6.592;2023-04-25T14:02:45;7.25;;;1.50;;
20482;SDS011;10400;53.198;6.592;2023-04-25T14:05:10;6.13;;;1.35;;
20482;SDS011;10400;53.198;6.592;2023-04-25T14:07:36;5.43;;;1.40;;
20482;SDS011;10400;53.198;6.592;2023-04-25T14:10:02;12.65;;;1.52;;
20482;SDS011;10400;53.198;6.592;2023-04-25T14:12:29;9.55;;;1.95;;
20482;SDS011;10400;53.198;6.592;2023-04-25T14:14:55;8.57;;;1.45;;
20482;SDS011;10400;53.198;6.592;2023-04-25T14:17:20;11.02;;;1.75;;
20482;SDS011;10400;53.198;6.592;2023-04-25T14:19:46;9.80;;;1.70;;
20482;SDS011;10400;53.198;6.592;2023-04-25T14:22:13;6.20;;;1.60;;
20482;SDS011;10400;53.198;6.592;2023-04-25T14:24:40;7.03;;;1.60;;
20482;SDS011;10400;53.198;6.592;2023-04-25T14:27:06;3.45;;;1.20;;
20482;SDS011;10400;53.198;6.592;2023-04-25T14:29:32;6.97;;;1.40;;
20482;SDS011;10400;53.198;6.592;2023-04-25T14:31:57;9.73;;;1.33;;
20482;SDS011;10400;53.198;6.592;2023-04-25T14:34:24;5.45;;;1.30;;
20482;SDS011;10400;53.198;6.592;2023-04-25T14:36:51;5.85;;;1.20;;
20482;SDS011;10400;53.198;6.592;2023-04-25T14:39:17;7.32;;;1.25;;
20482;SDS011;10400;53.198;6.592;2023-04-25T14:41:43;5.88;;;1.55;;
20482;SDS011;10400;53.198;6.592;2023-04-25T14:44:09;9.30;;;1.65;;